createdAt,value
2018-09-18T00:02:26.647Z,4.33
2018-09-18T00:04:53.778Z,4.57
2018-09-18T00:07:20.914Z,4.27
2018-09-18T00:09:48.056Z,4.80
2018-09-18T00:12:15.192Z,4.20
2018-09-18T00:14:42.317Z,4.40
2018-09-18T00:17:09.430Z,4.47
2018-09-18T00:19:36.568Z,4.53
2018-09-18T00:22:03.758Z,4.37
2018-09-18T00:24:30.955Z,5.00
2018-09-18T00:26:58.074Z,4.40
2018-09-18T00:29:25.228Z,4.27
2018-09-18T00:31:52.356Z,4.83
2018-09-18T00:34:19.519Z,4.83
2018-09-18T00:36:46.644Z,4.67
2018-09-18T00:39:13.757Z,4.43
2018-09-18T00:41:40.878Z,4.63
2018-09-18T00:44:07.991Z,4.30
2018-09-18T00:46:35.144Z,4.27
2018-09-18T00:49:02.307Z,4.67
2018-09-18T00:51:29.515Z,4.23
2018-09-18T00:53:56.637Z,4.10
2018-09-18T00:56:23.755Z,4.40
2018-09-18T00:58:50.883Z,4.33
2018-09-18T01:01:18.006Z,4.23
2018-09-18T01:03:45.151Z,4.50
2018-09-18T01:06:12.515Z,4.40
2018-09-18T01:08:39.634Z,4.20
2018-09-18T01:11:06.863Z,4.47
2018-09-18T01:13:34.054Z,4.10
2018-09-18T01:16:01.274Z,4.73
2018-09-18T01:18:33.958Z,4.40
2018-09-18T01:21:01.122Z,4.43
2018-09-18T01:23:28.310Z,4.03
2018-09-18T01:25:55.418Z,4.30
2018-09-18T01:28:22.533Z,4.17
2018-09-18T01:30:49.702Z,4.17
2018-09-18T01:33:16.814Z,4.37
2018-09-18T01:35:44.086Z,4.47
2018-09-18T01:38:11.233Z,4.20
2018-09-18T01:40:38.353Z,4.23
2018-09-18T01:43:05.501Z,4.33
2018-09-18T01:45:32.655Z,3.90
2018-09-18T01:47:59.795Z,4.17
2018-09-18T01:50:26.914Z,4.13
2018-09-18T01:52:54.043Z,4.20
2018-09-18T01:55:21.149Z,4.63
2018-09-18T01:57:48.345Z,4.37
2018-09-18T02:00:15.450Z,4.23
2018-09-18T02:02:42.566Z,4.30
2018-09-18T02:05:09.711Z,3.93
2018-09-18T02:07:36.846Z,4.07
2018-09-18T02:10:03.986Z,4.57
2018-09-18T02:12:31.105Z,4.23
2018-09-18T02:14:58.228Z,4.47
2018-09-18T02:17:25.394Z,3.90
2018-09-18T02:19:52.578Z,4.00
2018-09-18T02:22:19.810Z,4.40
2018-09-18T02:24:46.930Z,4.70
2018-09-18T02:27:14.058Z,4.17
2018-09-18T02:29:41.189Z,4.20
2018-09-18T02:32:08.319Z,4.10
2018-09-18T02:34:35.533Z,4.50
2018-09-18T02:37:02.686Z,4.23
2018-09-18T02:39:29.807Z,4.27
2018-09-18T02:41:56.977Z,4.10
2018-09-18T02:44:24.126Z,3.90
2018-09-18T02:46:51.251Z,4.23
2018-09-18T02:49:18.477Z,4.07
2018-09-18T02:51:45.591Z,4.30
2018-09-18T02:54:12.734Z,3.77
2018-09-18T02:56:39.863Z,4.20
2018-09-18T02:59:07.043Z,4.77
2018-09-18T03:01:34.162Z,4.00
2018-09-18T03:04:01.386Z,4.73
2018-09-18T03:06:28.502Z,4.57
2018-09-18T03:08:55.620Z,4.10
2018-09-18T03:11:22.826Z,4.60
2018-09-18T03:13:49.929Z,4.37
2018-09-18T03:16:17.056Z,4.30
2018-09-18T03:18:44.163Z,4.10
2018-09-18T03:21:11.343Z,4.40
2018-09-18T03:23:38.478Z,4.07
2018-09-18T03:26:05.618Z,4.20
2018-09-18T03:28:32.730Z,5.30
2018-09-18T03:30:59.845Z,4.27
2018-09-18T03:33:26.979Z,4.03
2018-09-18T03:35:54.166Z,4.40
2018-09-18T03:38:21.276Z,4.13
2018-09-18T03:40:48.462Z,4.30
2018-09-18T03:43:15.650Z,4.30
2018-09-18T03:45:42.737Z,4.23
2018-09-18T03:48:09.870Z,4.40
2018-09-18T03:50:36.994Z,4.40
2018-09-18T03:53:04.118Z,4.73
2018-09-18T03:55:31.231Z,4.23
2018-09-18T03:57:58.340Z,4.57
2018-09-18T04:00:25.495Z,4.07
2018-09-18T04:02:52.658Z,4.43
2018-09-18T04:05:19.791Z,4.10
2018-09-18T04:07:46.959Z,4.50
2018-09-18T04:10:14.038Z,4.20
2018-09-18T04:12:41.490Z,4.80
2018-09-18T04:15:08.616Z,4.30
2018-09-18T04:17:35.747Z,4.10
2018-09-18T04:20:02.899Z,4.20
2018-09-18T04:22:30.012Z,4.10
2018-09-18T04:24:57.135Z,4.10
2018-09-18T04:27:24.302Z,4.47
2018-09-18T04:29:51.477Z,3.80
2018-09-18T04:32:18.610Z,4.40
2018-09-18T04:34:45.803Z,4.03
2018-09-18T04:37:12.898Z,4.63
2018-09-18T04:39:40.014Z,4.17
2018-09-18T04:42:07.131Z,4.27
2018-09-18T04:44:34.263Z,4.57
2018-09-18T04:47:03.161Z,4.43
2018-09-18T04:49:30.324Z,3.80
2018-09-18T04:51:57.479Z,4.13
2018-09-18T04:54:24.652Z,4.77
2018-09-18T04:56:51.782Z,4.67
2018-09-18T04:59:18.913Z,4.70
2018-09-18T05:01:46.090Z,4.57
2018-09-18T05:04:13.230Z,4.30
2018-09-18T05:06:40.348Z,4.10
2018-09-18T05:09:08.237Z,4.50
2018-09-18T05:11:35.345Z,4.30
2018-09-18T05:14:02.498Z,4.63
2018-09-18T05:16:29.693Z,4.80
2018-09-18T05:18:56.864Z,4.27
2018-09-18T05:21:24.069Z,4.50
2018-09-18T05:23:51.315Z,4.90
2018-09-18T05:26:18.431Z,4.40
2018-09-18T05:28:45.675Z,4.60
2018-09-18T05:31:12.821Z,4.10
2018-09-18T05:33:40.049Z,5.30
2018-09-18T05:36:07.252Z,4.50
2018-09-18T05:38:34.392Z,4.67
2018-09-18T05:41:01.514Z,4.67
2018-09-18T05:43:28.716Z,4.10
2018-09-18T05:46:02.769Z,4.73
2018-09-18T05:48:33.495Z,4.90
2018-09-18T05:51:00.806Z,4.50
2018-09-18T05:53:28.019Z,4.43
2018-09-18T05:55:55.314Z,4.90
2018-09-18T05:58:22.460Z,4.63
2018-09-18T06:00:49.629Z,4.50
2018-09-18T06:03:16.809Z,4.57
2018-09-18T06:05:43.960Z,5.00
2018-09-18T06:08:11.072Z,4.27
2018-09-18T06:10:38.196Z,4.93
2018-09-18T06:13:05.407Z,4.40
2018-09-18T06:15:32.519Z,4.63
2018-09-18T06:17:59.717Z,3.93
2018-09-18T06:20:26.802Z,4.37
2018-09-18T06:22:53.925Z,4.50
2018-09-18T06:25:21.094Z,4.10
2018-09-18T06:27:48.218Z,4.77
2018-09-18T06:30:15.471Z,4.50
2018-09-18T06:32:42.603Z,4.60
2018-09-18T06:35:09.791Z,4.57
2018-09-18T06:37:37.449Z,5.00
2018-09-18T06:40:04.723Z,4.73
2018-09-18T06:42:31.837Z,4.50
2018-09-18T06:44:59.018Z,4.33
2018-09-18T06:47:26.222Z,4.70
2018-09-18T06:49:53.343Z,4.33
2018-09-18T06:52:20.710Z,4.67
2018-09-18T06:54:48.514Z,4.47
2018-09-18T06:57:16.804Z,4.50
2018-09-18T06:59:45.215Z,4.40
2018-09-18T07:02:12.894Z,4.50
2018-09-18T07:04:42.084Z,4.50
2018-09-18T07:07:12.036Z,4.53
2018-09-18T07:09:39.657Z,4.30
2018-09-18T07:12:08.494Z,4.20
2018-09-18T07:14:35.755Z,4.60
2018-09-18T07:17:03.105Z,4.90
2018-09-18T07:19:30.511Z,3.97
2018-09-18T07:21:57.688Z,4.10
2018-09-18T07:24:24.815Z,4.10
2018-09-18T07:26:52.006Z,4.27
2018-09-18T07:29:20.183Z,4.60
2018-09-18T07:31:50.664Z,4.60
2018-09-18T07:34:25.076Z,4.80
2018-09-18T07:36:53.704Z,4.33
2018-09-18T07:39:23.761Z,4.50
2018-09-18T07:41:52.640Z,4.30
2018-09-18T07:44:20.278Z,4.70
2018-09-18T07:46:48.018Z,4.13
2018-09-18T07:49:15.236Z,4.50
2018-09-18T07:51:42.462Z,4.30
2018-09-18T07:54:09.642Z,4.23
2018-09-18T07:56:36.815Z,4.63
2018-09-18T07:59:04.007Z,4.90
2018-09-18T08:01:31.956Z,4.40
2018-09-18T08:03:59.121Z,4.50
2018-09-18T08:06:26.438Z,4.40
2018-09-18T08:08:53.603Z,4.53
2018-09-18T08:11:21.050Z,4.87
2018-09-18T08:13:49.490Z,4.30
2018-09-18T08:16:16.707Z,4.30
2018-09-18T08:18:44.979Z,3.93
2018-09-18T08:21:12.342Z,4.40
2018-09-18T08:23:39.644Z,4.97
2018-09-18T08:26:06.818Z,4.30
2018-09-18T08:28:33.979Z,4.33
2018-09-18T08:31:01.116Z,4.30
2018-09-18T08:33:28.430Z,4.43
2018-09-18T08:35:55.612Z,3.77
2018-09-18T08:38:22.947Z,4.40
2018-09-18T08:40:50.142Z,4.40
2018-09-18T08:43:17.375Z,4.27
2018-09-18T08:45:44.735Z,4.40
2018-09-18T08:48:11.918Z,4.37
2018-09-18T08:50:39.102Z,4.60
2018-09-18T08:53:06.238Z,4.47
2018-09-18T08:55:33.363Z,4.30
2018-09-18T08:58:00.612Z,4.50
2018-09-18T09:00:31.158Z,4.23
2018-09-18T09:03:02.113Z,4.10
2018-09-18T09:05:32.645Z,4.00
2018-09-18T09:08:05.681Z,4.10
2018-09-18T09:10:32.939Z,3.93
2018-09-18T09:13:00.119Z,4.07
2018-09-18T09:15:27.289Z,4.43
2018-09-18T09:17:57.241Z,4.13
2018-09-18T09:20:24.572Z,4.33
2018-09-18T09:22:51.841Z,4.00
2018-09-18T09:25:18.903Z,4.40
2018-09-18T09:27:46.193Z,4.23
2018-09-18T09:30:13.213Z,4.13
2018-09-18T09:32:40.340Z,4.03
2018-09-18T09:35:07.473Z,4.40
2018-09-18T09:37:34.666Z,4.27
2018-09-18T09:40:01.772Z,3.90
2018-09-18T09:42:29.001Z,4.17
2018-09-18T09:44:56.168Z,4.50
2018-09-18T09:47:23.236Z,4.33
2018-09-18T09:49:50.734Z,4.03
2018-09-18T09:52:17.869Z,4.27
2018-09-18T09:54:45.056Z,4.53
2018-09-18T09:57:12.211Z,4.23
2018-09-18T09:59:39.394Z,4.27
2018-09-18T10:02:12.045Z,4.33
2018-09-18T10:04:39.166Z,4.40
2018-09-18T10:07:06.075Z,3.93
2018-09-18T10:09:33.246Z,4.30
2018-09-18T10:12:00.392Z,4.40
2018-09-18T10:14:27.537Z,4.43
2018-09-18T10:16:54.677Z,4.03
2018-09-18T10:19:21.818Z,3.97
2018-09-18T10:21:49.011Z,4.37
2018-09-18T10:24:16.154Z,4.30
2018-09-18T10:26:43.340Z,4.60
2018-09-18T10:29:10.404Z,4.50
2018-09-18T10:31:37.571Z,4.70
2018-09-18T10:34:04.701Z,4.23
2018-09-18T10:36:32.037Z,4.47
2018-09-18T10:38:59.320Z,4.80
2018-09-18T10:41:27.241Z,4.40
2018-09-18T10:43:54.447Z,5.00
2018-09-18T10:46:21.595Z,4.77
2018-09-18T10:48:49.620Z,4.60
2018-09-18T10:51:16.855Z,5.00
2018-09-18T10:53:44.058Z,4.50
2018-09-18T10:56:11.279Z,4.20
2018-09-18T10:58:38.427Z,4.90
2018-09-18T11:01:05.686Z,4.93
2018-09-18T11:03:32.902Z,4.63
2018-09-18T11:05:59.999Z,4.50
2018-09-18T11:08:27.246Z,4.73
2018-09-18T11:10:54.343Z,4.93
2018-09-18T11:13:21.462Z,4.83
2018-09-18T11:15:48.742Z,4.37
2018-09-18T11:18:15.827Z,5.07
2018-09-18T11:20:42.935Z,4.60
2018-09-18T11:23:10.059Z,4.87
2018-09-18T11:25:37.226Z,4.70
2018-09-18T11:28:04.419Z,4.40
2018-09-18T11:30:31.569Z,5.00
2018-09-18T11:32:58.814Z,5.20
2018-09-18T11:35:25.924Z,4.87
2018-09-18T11:37:53.054Z,4.67
2018-09-18T11:40:20.255Z,5.50
2018-09-18T11:42:47.362Z,4.97
2018-09-18T11:45:14.517Z,5.00
2018-09-18T11:47:41.727Z,4.87
2018-09-18T11:50:09.272Z,5.00
2018-09-18T11:52:36.508Z,5.57
2018-09-18T11:55:03.711Z,5.13
2018-09-18T11:57:30.892Z,5.30
2018-09-18T11:59:58.061Z,5.03
2018-09-18T12:02:25.220Z,4.80
2018-09-18T12:07:37.095Z,5.00
2018-09-18T12:10:04.338Z,5.33
2018-09-18T12:12:31.568Z,5.07
2018-09-18T12:14:58.701Z,5.03
2018-09-18T12:17:25.887Z,5.30
2018-09-18T12:19:53.302Z,4.80
2018-09-18T12:22:20.464Z,4.73
2018-09-18T12:24:47.654Z,4.20
2018-09-18T12:27:14.792Z,4.63
2018-09-18T12:29:41.921Z,4.43
2018-09-18T12:32:09.438Z,4.27
2018-09-18T12:34:36.985Z,4.30
2018-09-18T12:37:04.163Z,4.07
2018-09-18T12:39:31.282Z,4.30
2018-09-18T12:41:58.603Z,3.87
2018-09-18T12:44:25.649Z,3.70
2018-09-18T12:46:52.768Z,3.70
2018-09-18T12:49:20.019Z,3.50
2018-09-18T12:51:47.216Z,3.50
2018-09-18T12:54:14.452Z,3.20
2018-09-18T12:56:41.558Z,3.47
2018-09-18T12:59:08.686Z,3.13
2018-09-18T13:01:35.784Z,3.60
2018-09-18T13:04:02.990Z,3.43
2018-09-18T13:06:30.414Z,3.33
2018-09-18T13:08:57.833Z,3.43
2018-09-18T13:11:24.981Z,3.47
2018-09-18T13:13:52.149Z,3.13
2018-09-18T13:16:19.255Z,3.33
2018-09-18T13:18:46.394Z,3.23
2018-09-18T13:21:13.519Z,3.47
2018-09-18T13:23:40.638Z,3.30
2018-09-18T13:26:07.926Z,3.40
2018-09-18T13:28:35.099Z,3.40
2018-09-18T13:31:02.252Z,3.40
2018-09-18T13:33:29.462Z,3.30
2018-09-18T13:35:56.611Z,3.40
2018-09-18T13:38:23.737Z,3.60
2018-09-18T13:40:51.007Z,3.73
2018-09-18T13:43:18.094Z,3.20
2018-09-18T13:45:45.242Z,3.40
2018-09-18T13:48:12.375Z,3.83
2018-09-18T13:50:39.489Z,4.07
2018-09-18T13:53:06.645Z,3.20
2018-09-18T13:55:33.860Z,3.47
2018-09-18T13:58:00.939Z,3.27
2018-09-18T14:00:28.066Z,3.37
2018-09-18T14:02:55.178Z,3.27
2018-09-18T14:05:22.304Z,3.30
2018-09-18T14:07:49.501Z,3.80
2018-09-18T14:10:16.672Z,3.50
2018-09-18T14:12:43.847Z,3.40
2018-09-18T14:15:11.029Z,3.30
2018-09-18T14:17:38.242Z,3.20
2018-09-18T14:20:05.809Z,3.20
2018-09-18T14:22:33.089Z,3.20
2018-09-18T14:25:00.239Z,3.50
2018-09-18T14:27:27.386Z,3.40
2018-09-18T14:29:54.521Z,3.20
2018-09-18T14:32:21.682Z,3.10
2018-09-18T14:34:48.816Z,3.40
2018-09-18T14:37:17.351Z,3.10
2018-09-18T14:39:44.538Z,3.37
2018-09-18T14:42:11.663Z,3.60
2018-09-18T14:44:39.993Z,3.80
2018-09-18T14:47:07.146Z,3.83
2018-09-18T14:49:34.288Z,3.27
2018-09-18T14:52:01.411Z,3.30
2018-09-18T14:54:28.538Z,3.90
2018-09-18T14:56:55.686Z,3.60
2018-09-18T14:59:22.867Z,3.87
2018-09-18T15:01:50.059Z,3.57
2018-09-18T15:04:17.180Z,3.03
2018-09-18T15:06:44.461Z,3.33
2018-09-18T15:09:12.106Z,3.03
2018-09-18T15:11:39.359Z,2.97
2018-09-18T15:14:06.566Z,2.93
2018-09-18T15:16:33.724Z,3.17
2018-09-18T15:19:00.831Z,3.00
2018-09-18T15:21:28.066Z,3.10
2018-09-18T15:23:55.203Z,3.00
2018-09-18T15:26:22.318Z,3.60
2018-09-18T15:28:49.549Z,2.93
2018-09-18T15:31:16.682Z,3.03
2018-09-18T15:33:43.942Z,3.50
2018-09-18T15:36:11.065Z,3.13
2018-09-18T15:38:38.219Z,3.20
2018-09-18T15:41:05.377Z,2.97
2018-09-18T15:43:32.514Z,2.77
2018-09-18T15:45:59.672Z,2.93
2018-09-18T15:48:26.825Z,2.40
2018-09-18T15:50:53.938Z,2.53
2018-09-18T15:53:21.120Z,2.57
2018-09-18T15:55:49.491Z,2.27
2018-09-18T15:58:16.606Z,2.63
2018-09-18T16:00:43.719Z,2.40
2018-09-18T16:03:10.959Z,2.50
2018-09-18T16:05:38.238Z,2.07
2018-09-18T16:08:05.388Z,2.10
2018-09-18T16:10:32.679Z,2.03
2018-09-18T16:12:59.786Z,2.30
2018-09-18T16:15:26.918Z,2.17
2018-09-18T16:17:54.091Z,2.40
2018-09-18T16:20:21.194Z,2.37
2018-09-18T16:22:48.386Z,2.20
2018-09-18T16:25:15.533Z,2.30
2018-09-18T16:27:43.789Z,2.30
2018-09-18T16:30:10.991Z,1.83
2018-09-18T16:32:38.123Z,2.50
2018-09-18T16:35:05.354Z,2.27
2018-09-18T16:37:32.476Z,2.50
2018-09-18T16:39:59.736Z,2.43
2018-09-18T16:42:26.851Z,2.33
2018-09-18T16:44:53.936Z,2.20
2018-09-18T16:47:21.148Z,2.50
2018-09-18T16:49:48.284Z,2.00
2018-09-18T16:52:15.453Z,2.50
2018-09-18T16:54:42.714Z,2.63
2018-09-18T16:57:09.920Z,2.03
2018-09-18T16:59:40.344Z,2.33
2018-09-18T17:02:07.492Z,1.70
2018-09-18T17:04:34.685Z,1.80
2018-09-18T17:07:01.768Z,2.10
2018-09-18T17:09:28.898Z,1.80
2018-09-18T17:11:57.137Z,2.07
2018-09-18T17:14:24.282Z,1.63
2018-09-18T17:16:51.421Z,2.00
2018-09-18T17:19:18.574Z,1.80
2018-09-18T17:21:45.678Z,2.00
2018-09-18T17:24:12.813Z,2.27
2018-09-18T17:26:39.930Z,2.20
2018-09-18T17:29:07.101Z,2.40
2018-09-18T17:31:34.209Z,2.20
2018-09-18T17:34:01.531Z,2.20
2018-09-18T17:36:28.879Z,2.03
2018-09-18T17:38:56.212Z,1.90
2018-09-18T17:41:23.388Z,2.20
2018-09-18T17:43:50.561Z,2.10
2018-09-18T17:46:17.676Z,2.00
2018-09-18T17:48:44.842Z,1.90
2018-09-18T17:51:12.094Z,2.00
2018-09-18T17:53:39.435Z,2.33
2018-09-18T17:56:06.513Z,2.40
2018-09-18T17:58:33.715Z,2.33
2018-09-18T18:01:00.831Z,2.20
2018-09-18T18:03:27.961Z,2.20
2018-09-18T18:05:55.154Z,2.20
2018-09-18T18:08:22.354Z,2.10
2018-09-18T18:10:49.567Z,2.50
2018-09-18T18:13:16.821Z,2.40
2018-09-18T18:15:43.978Z,2.30
2018-09-18T18:18:11.092Z,2.40
2018-09-18T18:20:38.293Z,2.43
2018-09-18T18:23:05.391Z,2.60
2018-09-18T18:25:32.523Z,2.63
2018-09-18T18:27:59.664Z,2.63
2018-09-18T18:30:26.836Z,2.80
2018-09-18T18:32:53.984Z,2.50
2018-09-18T18:35:21.263Z,2.73
2018-09-18T18:37:48.517Z,2.57
2018-09-18T18:40:15.657Z,2.50
2018-09-18T18:42:42.773Z,2.30
2018-09-18T18:45:09.951Z,2.20
2018-09-18T18:47:37.182Z,2.50
2018-09-18T18:50:04.263Z,2.50
2018-09-18T18:52:31.394Z,2.23
2018-09-18T18:54:58.556Z,2.50
2018-09-18T18:57:25.737Z,2.90
2018-09-18T18:59:52.875Z,2.63
2018-09-18T19:02:20.084Z,3.00
2018-09-18T19:04:47.231Z,2.73
2018-09-18T19:07:14.379Z,2.70
2018-09-18T19:09:41.498Z,3.23
2018-09-18T19:12:08.658Z,3.37
2018-09-18T19:14:35.762Z,3.07
2018-09-18T19:17:02.916Z,3.07
2018-09-18T19:19:30.149Z,3.37
2018-09-18T19:21:57.317Z,3.03
2018-09-18T19:24:24.630Z,3.50
2018-09-18T19:26:51.751Z,3.70
2018-09-18T19:29:18.859Z,3.57
2018-09-18T19:31:45.988Z,3.23
2018-09-18T19:34:13.117Z,3.80
2018-09-18T19:36:41.730Z,3.67
2018-09-18T19:39:09.274Z,3.57
2018-09-18T19:41:36.493Z,3.80
2018-09-18T19:44:03.613Z,3.60
2018-09-18T19:46:30.753Z,4.10
2018-09-18T19:48:57.894Z,3.83
2018-09-18T19:51:25.083Z,3.73
2018-09-18T19:53:52.187Z,3.90
2018-09-18T19:56:19.361Z,4.17
2018-09-18T19:58:47.592Z,3.80
2018-09-18T20:01:14.792Z,4.10
2018-09-18T20:03:41.897Z,4.20
2018-09-18T20:06:09.012Z,4.17
2018-09-18T20:08:36.137Z,4.10
2018-09-18T20:11:03.368Z,3.90
2018-09-18T20:13:30.495Z,3.70
2018-09-18T20:15:57.645Z,4.43
2018-09-18T20:18:24.827Z,4.50
2018-09-18T20:20:52.033Z,4.40
2018-09-18T20:23:19.183Z,4.30
2018-09-18T20:25:46.316Z,9.87
2018-09-18T20:28:13.465Z,7.67
2018-09-18T20:30:40.589Z,4.43
2018-09-18T20:33:07.718Z,3.73
2018-09-18T20:35:34.865Z,3.50
2018-09-18T20:38:02.507Z,3.10
2018-09-18T20:40:29.652Z,3.97
2018-09-18T20:42:56.832Z,3.87
2018-09-18T20:45:23.976Z,3.20
2018-09-18T20:47:51.097Z,3.60
2018-09-18T20:50:21.990Z,3.57
2018-09-18T20:52:49.521Z,3.70
2018-09-18T20:55:16.626Z,3.87
2018-09-18T20:57:43.750Z,3.40
2018-09-18T21:00:10.877Z,3.80
2018-09-18T21:02:38.014Z,3.43
2018-09-18T21:05:05.206Z,3.77
2018-09-18T21:07:32.309Z,3.37
2018-09-18T21:09:59.487Z,3.93
2018-09-18T21:12:26.676Z,3.93
2018-09-18T21:14:53.830Z,4.20
2018-09-18T21:17:21.021Z,4.20
2018-09-18T21:19:48.138Z,4.37
2018-09-18T21:22:15.285Z,4.10
2018-09-18T21:24:42.434Z,4.23
2018-09-18T21:27:09.645Z,4.30
2018-09-18T21:29:36.783Z,4.17
2018-09-18T21:32:03.938Z,4.37
2018-09-18T21:34:31.049Z,4.20
2018-09-18T21:36:58.201Z,4.07
2018-09-18T21:39:25.633Z,4.07
2018-09-18T21:41:52.792Z,4.30
2018-09-18T21:44:19.922Z,4.40
2018-09-18T21:46:47.059Z,4.27
2018-09-18T21:49:14.178Z,4.10
2018-09-18T21:51:41.311Z,4.27
2018-09-18T21:54:08.448Z,4.50
2018-09-18T21:56:35.597Z,4.50
2018-09-18T21:59:02.745Z,4.43
2018-09-18T22:01:30.015Z,4.40
2018-09-18T22:03:57.117Z,4.37
2018-09-18T22:06:24.250Z,4.70
2018-09-18T22:08:51.412Z,4.53
2018-09-18T22:11:18.528Z,4.43
2018-09-18T22:13:45.667Z,4.63
2018-09-18T22:16:12.803Z,4.77
2018-09-18T22:18:39.944Z,4.23
2018-09-18T22:21:07.069Z,4.23
2018-09-18T22:23:34.205Z,4.60
2018-09-18T22:26:01.386Z,4.60
2018-09-18T22:28:28.514Z,4.50
2018-09-18T22:30:55.795Z,4.50
2018-09-18T22:33:22.914Z,5.00
2018-09-18T22:35:50.051Z,4.73
2018-09-18T22:38:17.171Z,4.90
2018-09-18T22:40:44.327Z,4.60
2018-09-18T22:43:11.519Z,4.83
2018-09-18T22:45:38.628Z,4.80
2018-09-18T22:48:05.859Z,4.67
2018-09-18T22:50:33.177Z,4.60
2018-09-18T22:55:48.966Z,4.97
2018-09-18T22:58:16.118Z,5.20
2018-09-18T23:00:43.261Z,4.80
2018-09-18T23:03:10.479Z,4.20
2018-09-18T23:05:37.613Z,4.77
2018-09-18T23:08:04.928Z,4.80
2018-09-18T23:10:32.038Z,4.53
2018-09-18T23:12:59.245Z,4.47
2018-09-18T23:15:26.366Z,4.60
2018-09-18T23:17:53.490Z,4.57
2018-09-18T23:20:20.689Z,4.50
2018-09-18T23:22:47.801Z,4.80
2018-09-18T23:25:14.992Z,4.40
2018-09-18T23:27:42.100Z,4.40
2018-09-18T23:30:09.308Z,4.57
2018-09-18T23:32:36.476Z,4.20
2018-09-18T23:35:03.663Z,4.87
2018-09-18T23:37:30.799Z,4.50
2018-09-18T23:39:57.938Z,4.70
2018-09-18T23:42:25.621Z,4.50
2018-09-18T23:44:52.817Z,4.90
2018-09-18T23:47:19.960Z,4.83
2018-09-18T23:49:47.383Z,4.93
2018-09-18T23:52:14.564Z,5.30
2018-09-18T23:54:41.745Z,5.27
2018-09-18T23:57:08.922Z,4.70
2018-09-18T23:59:36.054Z,5.00
